sensor_id;sensor_type;location;lat;lon;timestamp;temperature;humidity
45229;DHT22;30967;51.728;8.682;2022-08-04T00:00:09;26.90;91.50
45229;DHT22;30967;51.728;8.682;2022-08-04T00:02:58;26.80;91.60
45229;DHT22;30967;51.728;8.682;2022-08-04T00:08:43;26.70;91.70
45229;DHT22;30967;51.728;8.682;2022-08-04T00:11:13;26.60;91.80
45229;DHT22;30967;51.728;8.682;2022-08-04T00:13:41;26.60;91.80
45229;DHT22;30967;51.728;8.682;2022-08-04T00:16:09;26.60;91.90
45229;DHT22;30967;51.728;8.682;2022-08-04T00:18:49;26.50;92.00
45229;DHT22;30967;51.728;8.682;2022-08-04T00:21:15;26.50;92.10
45229;DHT22;30967;51.728;8.682;2022-08-04T00:23:43;26.40;92.20
45229;DHT22;30967;51.728;8.682;2022-08-04T00:26:09;26.40;92.30
45229;DHT22;30967;51.728;8.682;2022-08-04T00:28:36;26.40;92.30
45229;DHT22;30967;51.728;8.682;2022-08-04T00:31:03;26.40;92.40
45229;DHT22;30967;51.728;8.682;2022-08-04T00:33:30;26.40;92.50
45229;DHT22;30967;51.728;8.682;2022-08-04T00:35:57;26.30;92.60
45229;DHT22;30967;51.728;8.682;2022-08-04T00:38:24;26.30;92.70
45229;DHT22;30967;51.728;8.682;2022-08-04T00:43:40;26.20;92.70
45229;DHT22;30967;51.728;8.682;2022-08-04T00:49:16;26.20;92.90
45229;DHT22;30967;51.728;8.682;2022-08-04T00:58:02;26.00;92.90
45229;DHT22;30967;51.728;8.682;2022-08-04T01:01:00;26.00;93.00
45229;DHT22;30967;51.728;8.682;2022-08-04T01:03:47;26.00;93.00
45229;DHT22;30967;51.728;8.682;2022-08-04T01:06:43;25.90;92.90
45229;DHT22;30967;51.728;8.682;2022-08-04T01:09:26;25.90;93.00
45229;DHT22;30967;51.728;8.682;2022-08-04T01:12:16;25.90;93.10
45229;DHT22;30967;51.728;8.682;2022-08-04T01:17:32;25.80;93.20
45229;DHT22;30967;51.728;8.682;2022-08-04T01:20:09;25.70;93.30
45229;DHT22;30967;51.728;8.682;2022-08-04T01:23:05;25.70;93.30
45229;DHT22;30967;51.728;8.682;2022-08-04T01:34:05;25.60;93.40
45229;DHT22;30967;51.728;8.682;2022-08-04T01:36:34;25.50;93.40
45229;DHT22;30967;51.728;8.682;2022-08-04T01:39:01;25.50;93.50
45229;DHT22;30967;51.728;8.682;2022-08-04T01:41:45;25.50;93.50
45229;DHT22;30967;51.728;8.682;2022-08-04T01:44:12;25.50;93.50
45229;DHT22;30967;51.728;8.682;2022-08-04T01:46:39;25.40;93.40
45229;DHT22;30967;51.728;8.682;2022-08-04T01:49:06;25.40;93.40
45229;DHT22;30967;51.728;8.682;2022-08-04T01:51:38;25.40;93.50
45229;DHT22;30967;51.728;8.682;2022-08-04T01:54:04;25.30;93.40
45229;DHT22;30967;51.728;8.682;2022-08-04T01:56:30;25.30;93.40
45229;DHT22;30967;51.728;8.682;2022-08-04T01:58:59;25.20;93.50
45229;DHT22;30967;51.728;8.682;2022-08-04T02:01:27;25.20;93.50
45229;DHT22;30967;51.728;8.682;2022-08-04T02:03:52;25.20;93.60
45229;DHT22;30967;51.728;8.682;2022-08-04T02:06:35;25.10;93.60
45229;DHT22;30967;51.728;8.682;2022-08-04T02:09:16;25.10;93.70
45229;DHT22;30967;51.728;8.682;2022-08-04T02:11:51;25.00;93.70
45229;DHT22;30967;51.728;8.682;2022-08-04T02:17:13;25.00;93.80
45229;DHT22;30967;51.728;8.682;2022-08-04T02:20:20;25.00;93.80
45229;DHT22;30967;51.728;8.682;2022-08-04T02:22:58;25.00;93.80
45229;DHT22;30967;51.728;8.682;2022-08-04T02:25:26;24.90;93.80
45229;DHT22;30967;51.728;8.682;2022-08-04T02:30:20;24.90;93.80
45229;DHT22;30967;51.728;8.682;2022-08-04T02:32:48;24.90;93.90
45229;DHT22;30967;51.728;8.682;2022-08-04T02:35:25;24.90;93.90
45229;DHT22;30967;51.728;8.682;2022-08-04T02:38:00;24.90;93.90
45229;DHT22;30967;51.728;8.682;2022-08-04T02:40:29;24.90;94.00
45229;DHT22;30967;51.728;8.682;2022-08-04T02:42:57;24.80;94.00
45229;DHT22;30967;51.728;8.682;2022-08-04T02:45:24;24.80;94.00
45229;DHT22;30967;51.728;8.682;2022-08-04T02:47:52;24.80;94.00
45229;DHT22;30967;51.728;8.682;2022-08-04T02:50:19;24.80;94.10
45229;DHT22;30967;51.728;8.682;2022-08-04T02:52:48;24.80;94.10
45229;DHT22;30967;51.728;8.682;2022-08-04T02:55:16;24.80;94.10
45229;DHT22;30967;51.728;8.682;2022-08-04T02:57:44;24.70;94.10
45229;DHT22;30967;51.728;8.682;2022-08-04T03:00:12;24.70;94.10
45229;DHT22;30967;51.728;8.682;2022-08-04T03:08:27;24.60;94.30
45229;DHT22;30967;51.728;8.682;2022-08-04T03:13:46;24.60;94.40
45229;DHT22;30967;51.728;8.682;2022-08-04T03:16:23;24.60;94.40
45229;DHT22;30967;51.728;8.682;2022-08-04T03:25:14;24.50;94.60
45229;DHT22;30967;51.728;8.682;2022-08-04T03:34:01;24.40;94.80
45229;DHT22;30967;51.728;8.682;2022-08-04T03:39:44;24.40;94.80
45229;DHT22;30967;51.728;8.682;2022-08-04T03:42:33;24.30;94.80
45229;DHT22;30967;51.728;8.682;2022-08-04T04:13:29;24.10;95.20
45229;DHT22;30967;51.728;8.682;2022-08-04T04:18:54;24.10;95.30
45229;DHT22;30967;51.728;8.682;2022-08-04T04:21:28;24.10;95.30
45229;DHT22;30967;51.728;8.682;2022-08-04T04:30:03;24.00;95.40
45229;DHT22;30967;51.728;8.682;2022-08-04T04:49:27;24.00;96.00
45229;DHT22;30967;51.728;8.682;2022-08-04T04:57:09;24.00;96.10
45229;DHT22;30967;51.728;8.682;2022-08-04T04:59:38;24.00;96.20
45229;DHT22;30967;51.728;8.682;2022-08-04T05:02:27;24.00;96.20
45229;DHT22;30967;51.728;8.682;2022-08-04T05:05:02;24.00;96.20
45229;DHT22;30967;51.728;8.682;2022-08-04T05:10:34;24.00;96.70
45229;DHT22;30967;51.728;8.682;2022-08-04T05:13:24;24.00;97.00
45229;DHT22;30967;51.728;8.682;2022-08-04T05:15:56;24.00;97.20
45229;DHT22;30967;51.728;8.682;2022-08-04T05:18:28;24.00;97.30
45229;DHT22;30967;51.728;8.682;2022-08-04T05:21:02;24.00;97.40
45229;DHT22;30967;51.728;8.682;2022-08-04T05:23:32;24.00;97.40
45229;DHT22;30967;51.728;8.682;2022-08-04T05:26:06;24.10;97.40
45229;DHT22;30967;51.728;8.682;2022-08-04T05:28:47;24.00;97.70
45229;DHT22;30967;51.728;8.682;2022-08-04T05:31:20;24.10;98.20
45229;DHT22;30967;51.728;8.682;2022-08-04T05:33:59;24.10;98.50
45229;DHT22;30967;51.728;8.682;2022-08-04T05:36:50;24.10;98.80
45229;DHT22;30967;51.728;8.682;2022-08-04T05:39:21;24.10;98.90
45229;DHT22;30967;51.728;8.682;2022-08-04T05:41:48;24.20;98.80
45229;DHT22;30967;51.728;8.682;2022-08-04T05:44:16;24.20;98.70
45229;DHT22;30967;51.728;8.682;2022-08-04T05:46:44;24.20;98.50
45229;DHT22;30967;51.728;8.682;2022-08-04T05:49:11;24.20;98.40
45229;DHT22;30967;51.728;8.682;2022-08-04T05:51:38;24.20;98.40
45229;DHT22;30967;51.728;8.682;2022-08-04T05:54:05;24.20;98.50
45229;DHT22;30967;51.728;8.682;2022-08-04T05:56:32;24.20;98.50
45229;DHT22;30967;51.728;8.682;2022-08-04T05:59:00;24.30;98.90
45229;DHT22;30967;51.728;8.682;2022-08-04T06:01:28;24.30;99.20
45229;DHT22;30967;51.728;8.682;2022-08-04T06:03:56;24.30;99.30
45229;DHT22;30967;51.728;8.682;2022-08-04T06:06:23;24.40;99.40
45229;DHT22;30967;51.728;8.682;2022-08-04T06:08:49;24.40;99.40
45229;DHT22;30967;51.728;8.682;2022-08-04T06:11:15;24.50;99.30
45229;DHT22;30967;51.728;8.682;2022-08-04T06:13:50;24.60;99.20
45229;DHT22;30967;51.728;8.682;2022-08-04T06:16:21;24.60;99.40
45229;DHT22;30967;51.728;8.682;2022-08-04T06:18:50;24.70;99.30
45229;DHT22;30967;51.728;8.682;2022-08-04T06:21:22;24.70;98.40
45229;DHT22;30967;51.728;8.682;2022-08-04T06:23:50;24.80;97.80
45229;DHT22;30967;51.728;8.682;2022-08-04T06:26:18;24.80;97.30
45229;DHT22;30967;51.728;8.682;2022-08-04T06:28:49;24.90;97.30
45229;DHT22;30967;51.728;8.682;2022-08-04T06:31:17;24.90;97.10
45229;DHT22;30967;51.728;8.682;2022-08-04T06:33:59;25.00;96.40
45229;DHT22;30967;51.728;8.682;2022-08-04T06:36:28;25.10;95.70
45229;DHT22;30967;51.728;8.682;2022-08-04T06:38:56;25.20;96.30
45229;DHT22;30967;51.728;8.682;2022-08-04T06:41:22;25.30;96.20
45229;DHT22;30967;51.728;8.682;2022-08-04T06:43:49;25.30;95.80
45229;DHT22;30967;51.728;8.682;2022-08-04T06:46:16;25.40;96.20
45229;DHT22;30967;51.728;8.682;2022-08-04T06:48:42;25.50;95.70
45229;DHT22;30967;51.728;8.682;2022-08-04T06:51:09;25.60;95.40
45229;DHT22;30967;51.728;8.682;2022-08-04T06:53:37;25.60;95.20
45229;DHT22;30967;51.728;8.682;2022-08-04T06:56:03;25.70;94.90
45229;DHT22;30967;51.728;8.682;2022-08-04T06:58:30;25.80;94.70
45229;DHT22;30967;51.728;8.682;2022-08-04T07:00:58;25.80;95.40
45229;DHT22;30967;51.728;8.682;2022-08-04T07:03:27;25.90;95.10
45229;DHT22;30967;51.728;8.682;2022-08-04T07:05:53;26.00;95.00
45229;DHT22;30967;51.728;8.682;2022-08-04T07:08:21;26.10;94.30
45229;DHT22;30967;51.728;8.682;2022-08-04T07:10:47;26.20;95.00
45229;DHT22;30967;51.728;8.682;2022-08-04T07:13:14;26.20;94.00
45229;DHT22;30967;51.728;8.682;2022-08-04T07:15:44;26.30;94.40
45229;DHT22;30967;51.728;8.682;2022-08-04T07:18:10;26.40;93.80
45229;DHT22;30967;51.728;8.682;2022-08-04T07:20:43;26.50;93.60
45229;DHT22;30967;51.728;8.682;2022-08-04T07:23:09;26.50;94.00
45229;DHT22;30967;51.728;8.682;2022-08-04T07:25:37;26.60;94.10
45229;DHT22;30967;51.728;8.682;2022-08-04T07:28:03;26.70;93.70
45229;DHT22;30967;51.728;8.682;2022-08-04T07:30:30;26.80;93.10
45229;DHT22;30967;51.728;8.682;2022-08-04T07:32:57;26.90;93.40
45229;DHT22;30967;51.728;8.682;2022-08-04T07:35:24;27.00;93.30
45229;DHT22;30967;51.728;8.682;2022-08-04T07:37:51;27.00;93.00
45229;DHT22;30967;51.728;8.682;2022-08-04T07:40:17;27.10;93.40
45229;DHT22;30967;51.728;8.682;2022-08-04T07:42:43;27.20;92.50
45229;DHT22;30967;51.728;8.682;2022-08-04T07:45:09;27.30;92.40
45229;DHT22;30967;51.728;8.682;2022-08-04T07:47:35;27.40;93.50
45229;DHT22;30967;51.728;8.682;2022-08-04T07:50:02;27.50;92.90
45229;DHT22;30967;51.728;8.682;2022-08-04T07:52:28;27.50;92.40
45229;DHT22;30967;51.728;8.682;2022-08-04T07:54:54;27.60;92.30
45229;DHT22;30967;51.728;8.682;2022-08-04T07:57:20;27.70;93.20
45229;DHT22;30967;51.728;8.682;2022-08-04T07:59:46;27.80;92.50
45229;DHT22;30967;51.728;8.682;2022-08-04T08:02:13;27.90;92.00
45229;DHT22;30967;51.728;8.682;2022-08-04T08:04:40;28.00;92.10
45229;DHT22;30967;51.728;8.682;2022-08-04T08:07:07;28.10;92.20
45229;DHT22;30967;51.728;8.682;2022-08-04T08:09:33;28.20;92.30
45229;DHT22;30967;51.728;8.682;2022-08-04T08:12:00;28.30;92.20
45229;DHT22;30967;51.728;8.682;2022-08-04T08:14:26;28.40;91.20
45229;DHT22;30967;51.728;8.682;2022-08-04T08:16:52;28.50;91.40
45229;DHT22;30967;51.728;8.682;2022-08-04T08:19:19;28.60;91.40
45229;DHT22;30967;51.728;8.682;2022-08-04T08:21:48;28.60;91.40
45229;DHT22;30967;51.728;8.682;2022-08-04T08:24:15;28.80;91.00
45229;DHT22;30967;51.728;8.682;2022-08-04T08:26:41;28.80;90.70
45229;DHT22;30967;51.728;8.682;2022-08-04T08:29:07;29.00;90.70
45229;DHT22;30967;51.728;8.682;2022-08-04T08:31:33;29.00;91.10
45229;DHT22;30967;51.728;8.682;2022-08-04T08:33:59;29.10;89.80
45229;DHT22;30967;51.728;8.682;2022-08-04T08:41:50;29.40;89.40
45229;DHT22;30967;51.728;8.682;2022-08-04T08:47:58;29.60;89.70
45229;DHT22;30967;51.728;8.682;2022-08-04T08:53:18;29.70;88.30
45229;DHT22;30967;51.728;8.682;2022-08-04T08:56:05;29.70;86.20
45229;DHT22;30967;51.728;8.682;2022-08-04T09:01:57;29.90;87.90
45229;DHT22;30967;51.728;8.682;2022-08-04T09:04:47;30.00;84.70
45229;DHT22;30967;51.728;8.682;2022-08-04T09:10:48;30.10;85.90
45229;DHT22;30967;51.728;8.682;2022-08-04T09:16:43;30.10;85.90
45229;DHT22;30967;51.728;8.682;2022-08-04T09:27:14;30.30;86.10
45229;DHT22;30967;51.728;8.682;2022-08-04T09:30:05;30.30;86.50
45229;DHT22;30967;51.728;8.682;2022-08-04T09:35:22;30.40;87.10
45229;DHT22;30967;51.728;8.682;2022-08-04T09:38:11;30.40;86.50
45229;DHT22;30967;51.728;8.682;2022-08-04T09:43:48;30.50;85.80
45229;DHT22;30967;51.728;8.682;2022-08-04T09:49:10;30.60;86.80
45229;DHT22;30967;51.728;8.682;2022-08-04T10:00:03;30.80;84.30
45229;DHT22;30967;51.728;8.682;2022-08-04T10:02:41;30.80;82.80
45229;DHT22;30967;51.728;8.682;2022-08-04T10:05:13;30.80;82.30
45229;DHT22;30967;51.728;8.682;2022-08-04T10:10:42;30.90;81.60
45229;DHT22;30967;51.728;8.682;2022-08-04T10:13:25;31.00;81.10
45229;DHT22;30967;51.728;8.682;2022-08-04T10:18:53;31.10;81.40
45229;DHT22;30967;51.728;8.682;2022-08-04T10:22:24;31.20;81.20
45229;DHT22;30967;51.728;8.682;2022-08-04T10:25:02;31.20;81.30
45229;DHT22;30967;51.728;8.682;2022-08-04T10:27:35;31.20;80.90
45229;DHT22;30967;51.728;8.682;2022-08-04T10:30:05;31.30;79.90
45229;DHT22;30967;51.728;8.682;2022-08-04T10:35:20;31.40;77.30
45229;DHT22;30967;51.728;8.682;2022-08-04T10:40:45;31.40;75.50
45229;DHT22;30967;51.728;8.682;2022-08-04T10:43:19;31.60;76.50
45229;DHT22;30967;51.728;8.682;2022-08-04T10:46:00;31.60;78.40
45229;DHT22;30967;51.728;8.682;2022-08-04T10:51:33;31.70;76.50
45229;DHT22;30967;51.728;8.682;2022-08-04T10:54:02;31.80;76.60
45229;DHT22;30967;51.728;8.682;2022-08-04T10:59:42;31.80;72.90
45229;DHT22;30967;51.728;8.682;2022-08-04T11:02:33;31.90;76.10
45229;DHT22;30967;51.728;8.682;2022-08-04T11:07:34;32.00;75.30
45229;DHT22;30967;51.728;8.682;2022-08-04T11:10:02;32.00;74.60
45229;DHT22;30967;51.728;8.682;2022-08-04T11:12:28;32.00;72.40
45229;DHT22;30967;51.728;8.682;2022-08-04T11:15:03;32.00;72.00
45229;DHT22;30967;51.728;8.682;2022-08-04T11:17:34;32.10;72.00
45229;DHT22;30967;51.728;8.682;2022-08-04T11:20:26;32.20;73.50
45229;DHT22;30967;51.728;8.682;2022-08-04T11:23:02;32.20;71.70
45229;DHT22;30967;51.728;8.682;2022-08-04T11:26:18;32.30;71.10
45229;DHT22;30967;51.728;8.682;2022-08-04T11:30:58;32.30;72.60
45229;DHT22;30967;51.728;8.682;2022-08-04T11:41:57;32.60;69.60
45229;DHT22;30967;51.728;8.682;2022-08-04T11:52:58;32.70;69.70
45229;DHT22;30967;51.728;8.682;2022-08-04T11:55:26;32.70;69.20
45229;DHT22;30967;51.728;8.682;2022-08-04T11:57:52;32.80;69.40
45229;DHT22;30967;51.728;8.682;2022-08-04T12:00:19;32.80;67.70
45229;DHT22;30967;51.728;8.682;2022-08-04T12:05:50;32.90;66.30
45229;DHT22;30967;51.728;8.682;2022-08-04T12:19:28;33.00;64.60
45229;DHT22;30967;51.728;8.682;2022-08-04T12:21:57;33.00;63.40
45229;DHT22;30967;51.728;8.682;2022-08-04T12:24:33;33.00;63.70
45229;DHT22;30967;51.728;8.682;2022-08-04T12:27:06;33.10;64.30
45229;DHT22;30967;51.728;8.682;2022-08-04T12:29:33;33.10;64.30
45229;DHT22;30967;51.728;8.682;2022-08-04T12:32:05;33.20;63.90
45229;DHT22;30967;51.728;8.682;2022-08-04T12:34:45;33.20;65.40
45229;DHT22;30967;51.728;8.682;2022-08-04T12:37:43;33.30;66.50
45229;DHT22;30967;51.728;8.682;2022-08-04T12:40:17;33.40;66.00
45229;DHT22;30967;51.728;8.682;2022-08-04T12:42:52;33.40;65.80
45229;DHT22;30967;51.728;8.682;2022-08-04T12:45:23;33.50;65.40
45229;DHT22;30967;51.728;8.682;2022-08-04T12:47:52;33.60;65.50
45229;DHT22;30967;51.728;8.682;2022-08-04T12:50:19;33.70;65.70
45229;DHT22;30967;51.728;8.682;2022-08-04T12:52:48;33.70;66.30
45229;DHT22;30967;51.728;8.682;2022-08-04T12:55:16;33.80;66.50
45229;DHT22;30967;51.728;8.682;2022-08-04T12:57:42;33.90;67.00
45229;DHT22;30967;51.728;8.682;2022-08-04T13:00:08;34.00;65.70
45229;DHT22;30967;51.728;8.682;2022-08-04T13:02:41;34.10;65.10
45229;DHT22;30967;51.728;8.682;2022-08-04T13:05:08;34.10;65.60
45229;DHT22;30967;51.728;8.682;2022-08-04T13:07:42;34.20;64.30
45229;DHT22;30967;51.728;8.682;2022-08-04T13:10:15;34.30;63.80
45229;DHT22;30967;51.728;8.682;2022-08-04T13:12:50;34.40;63.20
45229;DHT22;30967;51.728;8.682;2022-08-04T13:15:20;34.60;63.30
45229;DHT22;30967;51.728;8.682;2022-08-04T13:18:02;34.60;62.50
45229;DHT22;30967;51.728;8.682;2022-08-04T13:20:31;34.70;60.40
45229;DHT22;30967;51.728;8.682;2022-08-04T13:23:18;34.80;60.50
45229;DHT22;30967;51.728;8.682;2022-08-04T13:25:46;34.90;62.10
45229;DHT22;30967;51.728;8.682;2022-08-04T13:28:26;34.90;60.90
45229;DHT22;30967;51.728;8.682;2022-08-04T13:30:55;34.90;60.30
45229;DHT22;30967;51.728;8.682;2022-08-04T13:33:33;35.00;60.30
45229;DHT22;30967;51.728;8.682;2022-08-04T13:36:00;35.10;60.30
45229;DHT22;30967;51.728;8.682;2022-08-04T13:38:27;35.20;60.10
45229;DHT22;30967;51.728;8.682;2022-08-04T13:40:56;35.20;59.00
45229;DHT22;30967;51.728;8.682;2022-08-04T13:43:59;35.20;58.80
45229;DHT22;30967;51.728;8.682;2022-08-04T13:46:56;35.40;57.90
45229;DHT22;30967;51.728;8.682;2022-08-04T13:49:20;35.50;57.70
45229;DHT22;30967;51.728;8.682;2022-08-04T13:51:50;35.50;58.00
45229;DHT22;30967;51.728;8.682;2022-08-04T13:54:16;35.50;58.10
45229;DHT22;30967;51.728;8.682;2022-08-04T13:56:46;35.60;58.20
45229;DHT22;30967;51.728;8.682;2022-08-04T13:59:15;35.60;58.10
45229;DHT22;30967;51.728;8.682;2022-08-04T14:01:44;35.80;57.70
45229;DHT22;30967;51.728;8.682;2022-08-04T14:04:24;35.80;57.90
45229;DHT22;30967;51.728;8.682;2022-08-04T14:09:26;36.10;57.90
45229;DHT22;30967;51.728;8.682;2022-08-04T14:11:55;36.20;58.70
45229;DHT22;30967;51.728;8.682;2022-08-04T14:14:29;36.30;58.80
45229;DHT22;30967;51.728;8.682;2022-08-04T14:19:21;36.60;61.00
45229;DHT22;30967;51.728;8.682;2022-08-04T14:21:47;36.80;62.80
45229;DHT22;30967;51.728;8.682;2022-08-04T14:24:23;36.80;64.00
45229;DHT22;30967;51.728;8.682;2022-08-04T14:26:49;36.90;63.80
45229;DHT22;30967;51.728;8.682;2022-08-04T14:29:17;37.00;64.10
45229;DHT22;30967;51.728;8.682;2022-08-04T14:31:43;37.10;64.60
45229;DHT22;30967;51.728;8.682;2022-08-04T14:34:26;37.10;64.50
45229;DHT22;30967;51.728;8.682;2022-08-04T14:36:52;37.20;64.30
45229;DHT22;30967;51.728;8.682;2022-08-04T14:39:55;37.20;63.60
45229;DHT22;30967;51.728;8.682;2022-08-04T14:42:39;37.20;64.80
45229;DHT22;30967;51.728;8.682;2022-08-04T14:45:06;37.20;63.70
45229;DHT22;30967;51.728;8.682;2022-08-04T14:47:43;37.20;63.70
45229;DHT22;30967;51.728;8.682;2022-08-04T14:50:10;37.10;63.50
45229;DHT22;30967;51.728;8.682;2022-08-04T14:52:38;37.00;63.00
45229;DHT22;30967;51.728;8.682;2022-08-04T14:55:22;37.00;63.30
45229;DHT22;30967;51.728;8.682;2022-08-04T14:57:51;37.00;63.80
45229;DHT22;30967;51.728;8.682;2022-08-04T15:00:29;37.00;63.90
45229;DHT22;30967;51.728;8.682;2022-08-04T15:03:04;37.00;63.70
45229;DHT22;30967;51.728;8.682;2022-08-04T15:05:31;36.90;63.90
45229;DHT22;30967;51.728;8.682;2022-08-04T15:07:57;36.80;64.20
45229;DHT22;30967;51.728;8.682;2022-08-04T15:10:24;36.80;64.00
45229;DHT22;30967;51.728;8.682;2022-08-04T15:12:50;36.80;63.90
45229;DHT22;30967;51.728;8.682;2022-08-04T15:15:16;36.70;64.40
45229;DHT22;30967;51.728;8.682;2022-08-04T15:17:42;36.70;63.90
45229;DHT22;30967;51.728;8.682;2022-08-04T15:20:09;36.60;64.20
45229;DHT22;30967;51.728;8.682;2022-08-04T15:22:36;36.60;64.40
45229;DHT22;30967;51.728;8.682;2022-08-04T15:25:05;36.60;64.90
45229;DHT22;30967;51.728;8.682;2022-08-04T15:27:36;36.50;65.00
45229;DHT22;30967;51.728;8.682;2022-08-04T15:30:07;36.40;64.70
45229;DHT22;30967;51.728;8.682;2022-08-04T15:32:36;36.40;65.00
45229;DHT22;30967;51.728;8.682;2022-08-04T15:35:10;36.40;65.70
45229;DHT22;30967;51.728;8.682;2022-08-04T15:40:27;36.20;66.60
45229;DHT22;30967;51.728;8.682;2022-08-04T15:45:49;36.10;67.20
45229;DHT22;30967;51.728;8.682;2022-08-04T15:53:23;36.00;67.50
45229;DHT22;30967;51.728;8.682;2022-08-04T15:55:49;35.90;67.40
45229;DHT22;30967;51.728;8.682;2022-08-04T15:58:17;35.90;67.90
45229;DHT22;30967;51.728;8.682;2022-08-04T16:16:46;35.50;69.20
45229;DHT22;30967;51.728;8.682;2022-08-04T16:22:04;35.40;69.60
45229;DHT22;30967;51.728;8.682;2022-08-04T16:24:37;35.40;69.70
45229;DHT22;30967;51.728;8.682;2022-08-04T16:27:05;35.30;69.60
45229;DHT22;30967;51.728;8.682;2022-08-04T16:32:12;35.20;69.80
45229;DHT22;30967;51.728;8.682;2022-08-04T16:37:11;35.10;70.00
45229;DHT22;30967;51.728;8.682;2022-08-04T16:39:38;35.10;70.00
45229;DHT22;30967;51.728;8.682;2022-08-04T16:45:20;35.00;70.30
45229;DHT22;30967;51.728;8.682;2022-08-04T16:50:16;34.80;70.60
45229;DHT22;30967;51.728;8.682;2022-08-04T16:52:46;34.80;70.80
45229;DHT22;30967;51.728;8.682;2022-08-04T16:55:17;34.70;71.00
45229;DHT22;30967;51.728;8.682;2022-08-04T16:57:50;34.70;71.40
45229;DHT22;30967;51.728;8.682;2022-08-04T17:00:27;34.60;71.40
45229;DHT22;30967;51.728;8.682;2022-08-04T17:02:53;34.50;71.40
45229;DHT22;30967;51.728;8.682;2022-08-04T17:05:21;34.50;71.50
45229;DHT22;30967;51.728;8.682;2022-08-04T17:07:49;34.40;71.60
45229;DHT22;30967;51.728;8.682;2022-08-04T17:10:15;34.40;71.80
45229;DHT22;30967;51.728;8.682;2022-08-04T17:12:40;34.40;71.90
45229;DHT22;30967;51.728;8.682;2022-08-04T17:15:26;34.30;72.10
45229;DHT22;30967;51.728;8.682;2022-08-04T17:18:12;34.30;72.20
45229;DHT22;30967;51.728;8.682;2022-08-04T17:20:39;34.30;72.20
45229;DHT22;30967;51.728;8.682;2022-08-04T17:23:23;34.20;72.50
45229;DHT22;30967;51.728;8.682;2022-08-04T17:25:54;34.10;72.80
45229;DHT22;30967;51.728;8.682;2022-08-04T17:28:20;34.00;73.30
45229;DHT22;30967;51.728;8.682;2022-08-04T17:30:48;34.00;73.60
45229;DHT22;30967;51.728;8.682;2022-08-04T17:33:17;33.90;73.70
45229;DHT22;30967;51.728;8.682;2022-08-04T17:35:47;33.80;73.70
45229;DHT22;30967;51.728;8.682;2022-08-04T17:38:13;33.80;74.40
45229;DHT22;30967;51.728;8.682;2022-08-04T17:41:12;33.80;74.90
45229;DHT22;30967;51.728;8.682;2022-08-04T17:43:47;33.70;75.10
45229;DHT22;30967;51.728;8.682;2022-08-04T17:46:14;33.60;75.40
45229;DHT22;30967;51.728;8.682;2022-08-04T17:48:43;33.60;75.70
45229;DHT22;30967;51.728;8.682;2022-08-04T17:51:16;33.50;76.10
45229;DHT22;30967;51.728;8.682;2022-08-04T17:53:42;33.50;76.30
45229;DHT22;30967;51.728;8.682;2022-08-04T17:56:47;33.50;76.40
45229;DHT22;30967;51.728;8.682;2022-08-04T17:59:40;33.40;76.50
45229;DHT22;30967;51.728;8.682;2022-08-04T18:02:06;33.30;77.10
45229;DHT22;30967;51.728;8.682;2022-08-04T18:07:17;33.20;77.50
45229;DHT22;30967;51.728;8.682;2022-08-04T18:12:31;33.00;77.60
45229;DHT22;30967;51.728;8.682;2022-08-04T18:14:59;33.10;77.50
45229;DHT22;30967;51.728;8.682;2022-08-04T18:17:42;32.90;77.20
45229;DHT22;30967;51.728;8.682;2022-08-04T18:20:14;32.90;77.10
45229;DHT22;30967;51.728;8.682;2022-08-04T18:22:43;32.90;77.40
45229;DHT22;30967;51.728;8.682;2022-08-04T18:25:10;32.80;77.60
45229;DHT22;30967;51.728;8.682;2022-08-04T18:27:54;32.80;78.00
45229;DHT22;30967;51.728;8.682;2022-08-04T18:30:24;32.70;78.10
45229;DHT22;30967;51.728;8.682;2022-08-04T18:32:51;32.70;78.40
45229;DHT22;30967;51.728;8.682;2022-08-04T18:35:20;32.60;78.70
45229;DHT22;30967;51.728;8.682;2022-08-04T18:37:46;32.60;79.10
45229;DHT22;30967;51.728;8.682;2022-08-04T18:40:11;32.50;79.20
45229;DHT22;30967;51.728;8.682;2022-08-04T18:42:38;32.50;79.40
45229;DHT22;30967;51.728;8.682;2022-08-04T18:45:04;32.50;80.20
45229;DHT22;30967;51.728;8.682;2022-08-04T18:47:30;32.40;82.60
45229;DHT22;30967;51.728;8.682;2022-08-04T18:49:57;32.40;83.40
45229;DHT22;30967;51.728;8.682;2022-08-04T18:52:22;32.30;83.80
45229;DHT22;30967;51.728;8.682;2022-08-04T18:54:48;32.30;84.40
45229;DHT22;30967;51.728;8.682;2022-08-04T18:57:19;32.20;85.00
45229;DHT22;30967;51.728;8.682;2022-08-04T18:59:45;32.20;85.30
45229;DHT22;30967;51.728;8.682;2022-08-04T19:02:19;32.00;85.00
45229;DHT22;30967;51.728;8.682;2022-08-04T19:04:48;32.00;85.70
45229;DHT22;30967;51.728;8.682;2022-08-04T19:07:15;32.00;86.10
45229;DHT22;30967;51.728;8.682;2022-08-04T19:09:41;32.00;86.40
45229;DHT22;30967;51.728;8.682;2022-08-04T19:12:07;31.90;86.50
45229;DHT22;30967;51.728;8.682;2022-08-04T19:14:33;31.80;85.30
45229;DHT22;30967;51.728;8.682;2022-08-04T19:16:59;31.70;85.10
45229;DHT22;30967;51.728;8.682;2022-08-04T19:19:24;31.60;84.80
45229;DHT22;30967;51.728;8.682;2022-08-04T19:21:50;31.60;84.80
45229;DHT22;30967;51.728;8.682;2022-08-04T19:24:16;31.50;84.50
45229;DHT22;30967;51.728;8.682;2022-08-04T19:26:42;31.50;84.70
45229;DHT22;30967;51.728;8.682;2022-08-04T19:29:07;31.50;84.90
45229;DHT22;30967;51.728;8.682;2022-08-04T19:31:33;31.50;84.70
45229;DHT22;30967;51.728;8.682;2022-08-04T19:33:59;31.50;85.20
45229;DHT22;30967;51.728;8.682;2022-08-04T19:36:26;31.40;85.70
45229;DHT22;30967;51.728;8.682;2022-08-04T19:38:52;31.30;85.10
45229;DHT22;30967;51.728;8.682;2022-08-04T19:41:18;31.30;85.00
45229;DHT22;30967;51.728;8.682;2022-08-04T19:43:44;31.30;85.10
45229;DHT22;30967;51.728;8.682;2022-08-04T19:46:12;31.20;85.50
45229;DHT22;30967;51.728;8.682;2022-08-04T19:48:38;31.20;87.90
45229;DHT22;30967;51.728;8.682;2022-08-04T19:51:04;31.20;89.30
45229;DHT22;30967;51.728;8.682;2022-08-04T19:53:30;31.10;89.60
45229;DHT22;30967;51.728;8.682;2022-08-04T19:55:55;31.10;88.20
45229;DHT22;30967;51.728;8.682;2022-08-04T19:58:21;31.00;87.00
45229;DHT22;30967;51.728;8.682;2022-08-04T20:00:47;31.00;86.80
45229;DHT22;30967;51.728;8.682;2022-08-04T20:03:12;30.90;86.80
45229;DHT22;30967;51.728;8.682;2022-08-04T20:05:42;30.90;85.90
45229;DHT22;30967;51.728;8.682;2022-08-04T20:08:08;30.80;85.60
45229;DHT22;30967;51.728;8.682;2022-08-04T20:10:33;30.90;86.80
45229;DHT22;30967;51.728;8.682;2022-08-04T20:12:59;30.80;86.20
45229;DHT22;30967;51.728;8.682;2022-08-04T20:15:24;30.70;84.70
45229;DHT22;30967;51.728;8.682;2022-08-04T20:17:50;30.70;83.70
45229;DHT22;30967;51.728;8.682;2022-08-04T20:20:16;30.60;83.20
45229;DHT22;30967;51.728;8.682;2022-08-04T20:22:41;30.60;83.60
45229;DHT22;30967;51.728;8.682;2022-08-04T20:25:08;30.60;83.90